createdAt,value
2023-07-18T00:04:31.648Z,98797.75
2023-07-18T00:09:33.590Z,98799.31
2023-07-18T00:14:35.452Z,98798.97
2023-07-18T00:19:38.790Z,98792.31
2023-07-18T00:24:40.631Z,98799.44
2023-07-18T00:29:42.479Z,98797.81
2023-07-18T00:34:45.504Z,98793.06
2023-07-18T00:39:47.502Z,98786.88
2023-07-18T00:44:50.936Z,98781.44
2023-07-18T00:49:52.952Z,98789.56
2023-07-18T00:54:55.305Z,98793.00
2023-07-18T00:59:57.451Z,98789.78
2023-07-18T01:04:59.289Z,98801.53
2023-07-18T01:10:25.567Z,98786.31
2023-07-18T01:15:31.044Z,98777.69
2023-07-18T01:20:34.500Z,98785.56
2023-07-18T01:25:38.624Z,98783.97
2023-07-18T01:30:40.496Z,98782.88
2023-07-18T01:35:42.369Z,98784.50
2023-07-18T01:40:44.302Z,98785.75
2023-07-18T01:45:46.150Z,98792.47
2023-07-18T01:50:47.987Z,98789.31
2023-07-18T01:55:51.003Z,98795.28
2023-07-18T02:00:52.878Z,98796.81
2023-07-18T02:05:54.753Z,98794.06
2023-07-18T02:10:59.080Z,98794.47
2023-07-18T02:16:00.935Z,98798.78
2023-07-18T02:21:03.865Z,98804.28
2023-07-18T02:26:05.724Z,98809.00
2023-07-18T02:31:08.436Z,98798.03
2023-07-18T02:36:10.712Z,98809.00
2023-07-18T02:41:12.542Z,98802.34
2023-07-18T02:46:14.947Z,98808.22
2023-07-18T02:51:17.480Z,98808.22
2023-07-18T02:56:19.644Z,98808.25
2023-07-18T03:01:21.971Z,98809.44
2023-07-18T03:06:25.081Z,98815.69
2023-07-18T03:11:26.992Z,98812.56
2023-07-18T03:16:29.401Z,98807.09
2023-07-18T03:21:31.265Z,98807.47
2023-07-18T03:26:33.076Z,98820.44
2023-07-18T03:31:35.269Z,98801.22
2023-07-18T03:36:38.842Z,98811.03
2023-07-18T03:41:40.755Z,98802.00
2023-07-18T03:46:42.710Z,98804.75
2023-07-18T03:51:44.645Z,98807.88
2023-07-18T03:56:46.564Z,98813.34
2023-07-18T04:01:48.442Z,98806.28
2023-07-18T04:06:50.306Z,98805.91
2023-07-18T04:11:52.258Z,98800.81
2023-07-18T04:16:54.112Z,98799.59
2023-07-18T04:21:55.965Z,98800.41
2023-07-18T04:26:57.888Z,98814.53
2023-07-18T04:31:59.716Z,98813.72
2023-07-18T04:37:01.744Z,98818.44
2023-07-18T04:42:03.851Z,98806.63
2023-07-18T04:47:06.085Z,98797.22
2023-07-18T04:52:08.782Z,98790.91
2023-07-18T04:57:10.617Z,98807.00
2023-07-18T05:02:12.468Z,98811.31
2023-07-18T05:07:14.735Z,98808.16
2023-07-18T05:12:16.599Z,98806.53
2023-07-18T05:17:18.578Z,98804.13
2023-07-18T05:22:20.716Z,98802.47
2023-07-18T05:27:23.177Z,98805.50
2023-07-18T05:32:25.252Z,98806.69
2023-07-18T05:37:29.940Z,98798.38
2023-07-18T05:42:32.334Z,98806.97
2023-07-18T05:47:35.315Z,98804.53
2023-07-18T05:52:37.357Z,98800.50
2023-07-18T05:57:39.512Z,98807.81
2023-07-18T06:02:41.560Z,98798.59
2023-07-18T06:07:43.465Z,98792.09
2023-07-18T06:12:45.313Z,98793.91
2023-07-18T06:17:47.308Z,98790.75
2023-07-18T06:22:49.378Z,98798.53
2023-07-18T06:27:51.225Z,98791.97
2023-07-18T06:32:53.195Z,98788.34
2023-07-18T06:37:55.153Z,98787.56
2023-07-18T06:42:56.998Z,98788.06
2023-07-18T06:47:58.849Z,98794.91
2023-07-18T06:53:00.728Z,98806.66
2023-07-18T06:58:02.651Z,98800.88
2023-07-18T07:03:04.617Z,98804.22
2023-07-18T07:08:10.176Z,98796.59
2023-07-18T07:13:13.491Z,98806.31
2023-07-18T07:18:15.356Z,98793.94
2023-07-18T07:23:18.028Z,98784.78
2023-07-18T07:28:20.632Z,98775.94
2023-07-18T07:33:22.584Z,98781.09
2023-07-18T07:38:24.665Z,98775.94
2023-07-18T07:43:26.540Z,98776.78
2023-07-18T07:48:28.385Z,98777.56
2023-07-18T07:53:30.574Z,98765.88
2023-07-18T07:58:32.492Z,98774.88
2023-07-18T08:03:34.319Z,98773.84
2023-07-18T08:08:36.622Z,98764.41
2023-07-18T08:13:38.533Z,98754.69
2023-07-18T08:18:40.452Z,98751.72
2023-07-18T08:23:42.317Z,98750.16
2023-07-18T08:28:44.300Z,98741.88
2023-07-18T08:33:46.685Z,98726.88
2023-07-18T08:38:51.371Z,98725.81
2023-07-18T08:43:53.908Z,98715.50
2023-07-18T08:48:56.395Z,98709.56
2023-07-18T08:53:58.691Z,98715.25
2023-07-18T08:59:02.373Z,98702.44
2023-07-18T09:04:05.141Z,98703.34
2023-07-18T09:09:15.721Z,98685.09
2023-07-18T09:14:26.616Z,98685.31
2023-07-18T09:19:49.932Z,98673.72
2023-07-18T09:24:51.910Z,98681.94
2023-07-18T09:29:53.809Z,98676.91
2023-07-18T09:34:57.405Z,98659.09
2023-07-18T09:40:00.460Z,98659.16
2023-07-18T09:45:11.057Z,98654.06
2023-07-18T09:50:15.178Z,98643.19
2023-07-18T09:55:23.285Z,98643.03
2023-07-18T10:00:26.471Z,98636.47
2023-07-18T10:05:28.893Z,98635.53
2023-07-18T10:10:30.714Z,98647.41
2023-07-18T10:16:11.251Z,98633.53
2023-07-18T10:21:16.177Z,98619.78
2023-07-18T10:26:19.063Z,98614.56
2023-07-18T10:31:31.607Z,98597.75
2023-07-18T10:36:35.531Z,98599.97
2023-07-18T10:41:37.997Z,98586.53
2023-07-18T10:46:40.998Z,98573.06
2023-07-18T10:51:43.143Z,98570.53
2023-07-18T10:56:45.142Z,98562.81
2023-07-18T11:01:47.675Z,98553.13
2023-07-18T11:06:51.468Z,98532.19
2023-07-18T11:11:53.303Z,98526.69
2023-07-18T11:16:56.221Z,98529.47
2023-07-18T11:21:58.740Z,98522.28
2023-07-18T11:27:20.643Z,98501.28
2023-07-18T11:32:42.153Z,98503.44
2023-07-18T11:37:44.136Z,98505.50
2023-07-18T11:42:48.830Z,98487.41
2023-07-18T11:47:55.587Z,98494.31
2023-07-18T11:52:59.404Z,98478.88
2023-07-18T11:58:01.481Z,98492.16
2023-07-18T12:03:04.043Z,98494.28
2023-07-18T12:08:06.149Z,98483.53
2023-07-18T12:13:07.981Z,98494.16
2023-07-18T12:18:09.869Z,98486.19
2023-07-18T12:23:11.792Z,98481.81
2023-07-18T12:28:13.990Z,98475.84
2023-07-18T12:33:16.909Z,98460.72
2023-07-18T12:38:19.697Z,98447.28
2023-07-18T12:43:21.512Z,98453.56
2023-07-18T12:48:23.357Z,98460.38
2023-07-18T12:53:25.179Z,98444.78
2023-07-18T12:58:27.085Z,98444.47
2023-07-18T13:03:30.907Z,98426.06
2023-07-18T13:08:35.920Z,98395.13
2023-07-18T13:13:37.767Z,98422.63
2023-07-18T13:18:39.610Z,98424.34
2023-07-18T13:23:41.614Z,98431.38
2023-07-18T13:28:43.458Z,98423.13
2023-07-18T13:33:45.354Z,98424.88
2023-07-18T13:38:47.208Z,98413.47
2023-07-18T13:43:49.055Z,98406.00
2023-07-18T13:48:50.970Z,98407.72
2023-07-18T13:53:52.905Z,98420.59
2023-07-18T13:58:55.404Z,98419.31
2023-07-18T14:03:57.358Z,98406.97
2023-07-18T14:08:59.470Z,98403.75
2023-07-18T14:14:01.464Z,98399.06
2023-07-18T14:19:03.401Z,98380.84
2023-07-18T14:24:05.507Z,98365.63
2023-07-18T14:29:07.387Z,98352.63
2023-07-18T14:34:09.275Z,98334.44
2023-07-18T14:39:11.101Z,98337.94
2023-07-18T14:44:14.571Z,98328.69
2023-07-18T14:49:16.640Z,98324.78
2023-07-18T14:54:18.670Z,98313.59
2023-07-18T14:59:20.528Z,98309.13
2023-07-18T15:04:22.361Z,98321.13
2023-07-18T15:09:25.604Z,98304.84
2023-07-18T15:14:27.448Z,98303.38
2023-07-18T15:19:29.287Z,98295.88
2023-07-18T15:24:31.114Z,98274.59
2023-07-18T15:29:32.950Z,98276.59
2023-07-18T15:34:34.967Z,98283.91
2023-07-18T15:39:39.062Z,98276.03
2023-07-18T15:44:40.883Z,98266.00
2023-07-18T15:49:45.526Z,98258.78
2023-07-18T15:54:47.379Z,98251.13
2023-07-18T15:59:49.203Z,98253.81
2023-07-18T16:04:51.051Z,98251.97
2023-07-18T16:09:56.788Z,98219.72
2023-07-18T16:15:00.128Z,98233.53
2023-07-18T16:20:02.146Z,98234.69
2023-07-18T16:25:08.942Z,98227.56
2023-07-18T16:30:11.446Z,98229.91
2023-07-18T16:35:13.328Z,98232.91
2023-07-18T16:40:15.361Z,98225.78
2023-07-18T16:45:17.258Z,98211.25
2023-07-18T16:50:19.424Z,98206.81
2023-07-18T16:55:21.271Z,98208.22
2023-07-18T17:00:23.331Z,98199.09
2023-07-18T17:05:25.486Z,98200.97
2023-07-18T17:10:27.931Z,98198.34
2023-07-18T17:15:29.879Z,98195.94
2023-07-18T17:20:31.789Z,98192.66
2023-07-18T17:25:34.199Z,98172.09
2023-07-18T17:30:36.135Z,98183.09
2023-07-18T17:35:38.777Z,98169.66
2023-07-18T17:40:40.637Z,98169.38
2023-07-18T17:45:42.523Z,98162.03
2023-07-18T17:50:44.620Z,98160.81
2023-07-18T17:55:46.508Z,98158.06
2023-07-18T18:00:48.406Z,98152.25
2023-07-18T18:05:51.688Z,98151.16
2023-07-18T18:10:53.925Z,98147.63
2023-07-18T18:16:07.443Z,98155.09
2023-07-18T18:21:12.027Z,98150.78
2023-07-18T18:26:13.939Z,98139.19
2023-07-18T18:31:16.451Z,98147.41
2023-07-18T18:36:24.021Z,98146.19
2023-07-18T18:41:25.980Z,98140.28
2023-07-18T18:46:27.888Z,98134.59
2023-07-18T18:51:29.796Z,98142.28
2023-07-18T18:56:31.700Z,98146.16
2023-07-18T19:01:33.614Z,98156.81
2023-07-18T19:06:35.490Z,98155.56
2023-07-18T19:11:37.393Z,98150.31
2023-07-18T19:16:40.949Z,98170.22
2023-07-18T19:21:43.365Z,98180.09
2023-07-18T19:26:45.186Z,98178.56
2023-07-18T19:31:47.072Z,98183.28
2023-07-18T19:36:49.333Z,98181.06
2023-07-18T19:41:51.184Z,98183.06
2023-07-18T19:46:53.108Z,98166.84
2023-07-18T19:51:57.821Z,98166.53
2023-07-18T19:56:59.836Z,98176.38
2023-07-18T20:02:01.699Z,98167.38
2023-07-18T20:07:03.779Z,98159.03
2023-07-18T20:12:06.000Z,98162.34
2023-07-18T20:17:07.883Z,98167.41
2023-07-18T20:22:09.721Z,98158.09
2023-07-18T20:27:11.694Z,98162.25
2023-07-18T20:32:13.689Z,98154.34
2023-07-18T20:37:15.819Z,98163.69
2023-07-18T20:42:18.152Z,98176.72
2023-07-18T20:47:20.323Z,98167.56
2023-07-18T20:52:22.768Z,98174.63
2023-07-18T20:57:24.800Z,98175.34
2023-07-18T21:02:26.953Z,98181.84
2023-07-18T21:07:29.214Z,98184.06
2023-07-18T21:12:31.336Z,98185.28
2023-07-18T21:17:33.336Z,98181.84
2023-07-18T21:22:35.250Z,98175.75
2023-07-18T21:27:37.178Z,98175.53
2023-07-18T21:32:39.741Z,98167.31
2023-07-18T21:37:42.020Z,98182.50
2023-07-18T21:42:44.023Z,98172.91
2023-07-18T21:47:46.294Z,98167.00
2023-07-18T21:52:48.145Z,98162.66
2023-07-18T21:57:50.044Z,98169.78
2023-07-18T22:02:52.027Z,98155.19
2023-07-18T22:07:53.991Z,98144.66
2023-07-18T22:12:55.813Z,98141.50
2023-07-18T22:18:09.037Z,98133.22
2023-07-18T22:23:18.205Z,98117.88
2023-07-18T22:28:20.298Z,98121.69
2023-07-18T22:33:22.111Z,98118.66
2023-07-18T22:38:23.931Z,98115.59
2023-07-18T22:43:25.784Z,98115.19
2023-07-18T22:48:27.826Z,98121.88
2023-07-18T22:53:29.667Z,98115.00
2023-07-18T22:58:31.495Z,98107.78
2023-07-18T23:03:34.624Z,98101.38
2023-07-18T23:08:36.579Z,98087.13
2023-07-18T23:13:38.433Z,98085.66
2023-07-18T23:18:40.272Z,98082.63
2023-07-18T23:23:42.091Z,98078.41
2023-07-18T23:28:43.956Z,98079.63
2023-07-18T23:33:45.797Z,98079.69
2023-07-18T23:38:47.730Z,98074.16
2023-07-18T23:43:49.544Z,98071.47
2023-07-18T23:48:51.413Z,98078.16
2023-07-18T23:53:53.512Z,98089.88
2023-07-18T23:58:55.526Z,98079.78
